Airport View

Enter AWOS ICAO identifier for current METAR.

ex. KFNL

KMGJ 250954Z AUTO 00000KT 10SM CLR 02/01 A3017 RMK AO2 SLP220 T00220011

25 Oct 2020 10:08

Frequency: 119.275

Phone: 845-457-1486

Other Area AWOS: KSWF - KPOU - KFWN - KMSV

TAF AMD KSWF 250832Z 2509/2612 VRB04KT P6SM BKN250 FM251200 05006KT P6SM FEW120 SCT250 FM251800 08007KT P6SM FEW035 BKN120 FM252300 07007KT P6SM VCSH SCT035 OVC050 FM260300 08008KT 5SM -RA BR OVC015 FM260900 08008KT 5SM -RA BR OVC010 AMD NOT SKED